Main page
METAR-TAF:

METAR-TAF

Airports :

Ostend–Bruges International Airport

Ostend, Belgium

latitude: 51-12N, longitude: 002-52E, elevation: 4 m

Current weather observation

The report was made 24 minutes ago, at 08:50 UTC
Wind 8 kt from the West/Northwest
Temperature 8°C
Humidity 76%
Pressure 1034 hPa
Visibility 10 km or more
Few clouds at a height of 1800 ft

METAR: EBOS 260850Z 30008KT 9999 FEW018 08/04 Q1034 NOSIG

Time: 10:14 (09:14 UTC)

Forecast

The report was made 4 hours and 4 minutes ago, at 05:10 UTC
Forecast valid from 26 at 06 UTC to 27 at 12 UTC
Wind 7 kt from the North/Northwest
Visibility 10 km or more
Scattered clouds at a height of 2500 ft
Scattered clouds at a height of 4000 ft

TAF: EBOS 260510Z 2606/2712 33007KT 9999 SCT025 SCT040

Weather observations and forecasts of more than 4000 airports (METAR and TAF reports).

The available stations are represented by yellow and red dots on the map.

Hover mouse over dot to see the name of the station.

Then click to see weather observations and forecasts.

To change the map : click on the green buttons with a black cross to zoom in, on the green button with a dash to zoom out, or on the green arrows for adjacent maps.


METAR-TAF: